Flight Track Log - Related Links

Times and Time Zones

All times are in EDT time to prevent confusion due to time zone crossing. See the N70AG flight status page for this flight to view local times or setup timezone preferences in your user account.

Time Position Orientation Groundspeed Altitude Reporting Facility
EDT Latitude Longitude Course Direction KTS MPH feet Rate Location/Type
Tue 05:53:45 PM 37.8833 -121.3000 162° South 212 244 3,500  Level Northern Cal TRACON
Tue 05:54:45 PM 37.8000 -121.2833 171° South 267 307 7,000 3,000 Climbing Northern Cal TRACON
Tue 05:55:45 PM 37.7333 -121.2333 149° Southeast 279 321 9,500 2,300 Climbing Northern Cal TRACON
Tue 05:56:45 PM 37.6667 -121.1833 149° Southeast 328 377 11,600 2,269 Climbing Northern Cal TRACON
Tue 05:58:21 PM 37.5289 -121.1067 156° South 368 423 15,400 2,408 Climbing Oakland Center
Tue 05:59:00 PM 37.3121 -120.8782 162° South  Level FlightAware Approximate
Tue 05:59:22 PM 37.4322 -121.0458 153° Southeast 386 444 17,900  Level Oakland Center
Tue 06:00:23 PM 37.3308 -120.9842 154° Southeast 402 463 20,000 2,390 Climbing Oakland Center
Tue 06:01:25 PM 37.2036 -120.9056 154° Southeast 424 488 22,800 2,000 Climbing Oakland Center
Tue 06:02:26 PM 37.0956 -120.8408 154° Southeast 430 495 24,100 1,279 Climbing Oakland Center
Tue 06:03:27 PM 36.9847 -120.7728 154° Southeast 444 511 25,400 1,033 Climbing Oakland Center
Tue 06:04:28 PM 36.8714 -120.7036 154° Southeast 454 522 26,200 780 Climbing Oakland Center
Tue 06:05:30 PM 36.7578 -120.6372 155° Southeast 457 526 27,000 1,415 Climbing Oakland Center
Tue 06:06:31 PM 36.6417 -120.5694 155° Southeast 459 528 29,100 2,115 Climbing Oakland Center
Tue 06:07:32 PM 36.5281 -120.4981 153° Southeast 458 527 31,300 2,164 Climbing Oakland Center
Tue 06:08:33 PM 36.4139 -120.4325 155° Southeast 453 521 33,500 2,049 Climbing Oakland Center
Tue 06:09:35 PM 36.3003 -120.3664 155° Southeast 451 519 35,500 1,707 Climbing Oakland Center
Tue 06:10:36 PM 36.1642 -120.2817 153° Southeast 452 520 37,000 738 Climbing Oakland Center
Tue 06:11:37 PM 36.0444 -120.2119 155° Southeast 476 548 37,000  Level Oakland Center
Tue 06:12:39 PM 35.9169 -120.1356 154° Southeast 502 578 37,000  Level Oakland Center
Tue 06:13:40 PM 35.7900 -120.0617 155° Southeast 503 579 37,000  Level Oakland Center
Tue 06:14:41 PM 35.6639 -119.9869 154° Southeast 500 575 37,000  Level Oakland Center
Tue 06:15:51 PM 35.5233 -119.8703 146° Southeast 505 581 37,000  Level Los Angeles Center
Tue 06:17:54 PM 35.2975 -119.6592 143° Southeast 505 581 37,000  Level Los Angeles Center
Tue 06:18:56 PM 35.1844 -119.5558 143° Southeast 506 582 37,000  Level Los Angeles Center
Tue 06:19:58 PM 35.0717 -119.4517 143° Southeast 507 583 37,000  Level Los Angeles Center
Tue 06:21:00 PM 34.9589 -119.3489 143° Southeast 505 581 37,000  Level Los Angeles Center
Tue 06:22:02 PM 34.8458 -119.2450 143° Southeast 507 583 37,000  Level Los Angeles Center
Tue 06:23:04 PM 34.7103 -119.1217 143° Southeast 507 583 37,000  Level Los Angeles Center
Tue 06:24:06 PM 34.6092 -119.0361 145° Southeast 508 585 37,000  Level Los Angeles Center
Tue 06:25:08 PM 34.4736 -118.9122 143° Southeast 509 586 37,000  Level Los Angeles Center
Tue 06:26:10 PM 34.3603 -118.8111 144° Southeast 506 582 37,000  Level Los Angeles Center
Tue 06:27:12 PM 34.2478 -118.7128 144° Southeast 501 577 37,000 -194 Level Los Angeles Center
Tue 06:28:14 PM 34.1361 -118.6142 144° Southeast 498 573 36,600 -1,065 Descending Los Angeles Center
Tue 06:29:16 PM 34.0297 -118.5169 143° Southeast 485 558 34,800 -1,790 Descending Los Angeles Center
Tue 06:30:18 PM 33.9228 -118.4172 142° Southeast 485 558 32,900 -1,984 Descending Los Angeles Center
Tue 06:31:20 PM 33.8186 -118.2906 135° Southeast 512 589 30,700 -2,081 Descending Los Angeles Center
Tue 06:32:22 PM 33.7211 -118.1600 132° Southeast 515 593 28,600 -1,984 Descending Los Angeles Center
Tue 06:33:24 PM 33.6283 -118.0419 133° Southeast 487 560 26,600 -2,226 Descending Los Angeles Center
Tue 06:34:26 PM 33.5211 -117.9075 134° Southeast 464 534 24,000 -2,323 Descending Los Angeles Center
Tue 06:35:28 PM 33.4350 -117.7994 134° Southeast 450 518 21,800 -2,098 Descending Los Angeles Center
Tue 06:36:29 PM 33.3508 -117.6925 133° Southeast 443 510 19,700 -2,000 Descending Los Angeles Center
Tue 06:37:31 PM 33.2700 -117.5917 134° Southeast 424 488 17,700 -1,935 Descending Los Angeles Center
Tue 06:38:33 PM 33.1817 -117.5078 142° Southeast 407 468 15,700 -1,306 Descending Los Angeles Center
Tue 06:39:35 PM 33.0894 -117.4311 145° Southeast 403 464 15,000 -1,645 Descending Los Angeles Center
Tue 06:40:37 PM 32.9878 -117.3531 147° Southeast 390 449 12,300 -2,274 Descending Los Angeles Center
Tue 06:41:39 PM 32.9069 -117.2869 146° Southeast 336 387 10,300 -2,419 Descending Los Angeles Center
Tue 06:42:46 PM 32.8333 -117.2167 141° Southeast 299 344 7,100 -2,504 Descending Southern California TRACON
Tue 06:43:46 PM 32.8000 -117.1333 115° Southeast 272 313 5,000 -1,150 Descending Southern California TRACON
Tue 06:44:46 PM 32.7667 -117.0667 121° Southeast 207 238 4,800 -835 Descending Southern California TRACON
Tue 06:45:41 PM 32.7333 -117.0333 140° Southeast 212 244 3,400 -1,450 Descending Southern California TRACON
Tue 06:46:46 PM 32.7167 -117.1000 253° West 174 200 1,900 -1,238 Descending Southern California TRACON
Tue 06:47:47 PM 32.7167 -117.1333 270° West 130 150 800 -643 Descending Southern California TRACON
Tue 06:49:06 PM 32.7364 -117.1939 291° West 136 157 400 -304 Descending Los Angeles Center
Tue 06:51:00 PM 32.7333 -117.1833 235° Southwest  Level FlightAware Approximate

Login

Don't have an account? Register now (free) for customized features, flight alerts, and more!